sensor_id;sensor_type;location;lat;lon;timestamp;P1;durP1;ratioP1;P2;durP2;ratioP2
19776;SDS011;10047;42.490;26.012;2022-12-19T00:00:16;26.35;;;16.38;;
19776;SDS011;10047;42.490;26.012;2022-12-19T00:02:41;24.58;;;15.50;;
19776;SDS011;10047;42.490;26.012;2022-12-19T00:05:07;24.52;;;15.10;;
19776;SDS011;10047;42.490;26.012;2022-12-19T00:07:32;24.02;;;15.75;;
19776;SDS011;10047;42.490;26.012;2022-12-19T00:09:58;25.13;;;16.73;;
19776;SDS011;10047;42.490;26.012;2022-12-19T00:12:23;24.05;;;15.75;;
19776;SDS011;10047;42.490;26.012;2022-12-19T00:14:49;22.45;;;15.27;;
19776;SDS011;10047;42.490;26.012;2022-12-19T00:17:16;24.75;;;15.80;;
19776;SDS011;10047;42.490;26.012;2022-12-19T00:19:41;25.05;;;16.50;;
19776;SDS011;10047;42.490;26.012;2022-12-19T00:22:07;24.63;;;15.63;;
19776;SDS011;10047;42.490;26.012;2022-12-19T00:24:32;27.15;;;17.20;;
19776;SDS011;10047;42.490;26.012;2022-12-19T00:26:57;23.08;;;15.77;;
19776;SDS011;10047;42.490;26.012;2022-12-19T00:29:23;24.48;;;15.88;;
19776;SDS011;10047;42.490;26.012;2022-12-19T00:31:49;26.88;;;16.92;;
19776;SDS011;10047;42.490;26.012;2022-12-19T00:34:14;27.80;;;18.20;;
19776;SDS011;10047;42.490;26.012;2022-12-19T00:36:40;28.45;;;18.13;;
19776;SDS011;10047;42.490;26.012;2022-12-19T00:39:05;27.05;;;17.58;;
19776;SDS011;10047;42.490;26.012;2022-12-19T00:41:31;25.60;;;17.42;;
19776;SDS011;10047;42.490;26.012;2022-12-19T00:44:02;27.40;;;17.17;;
19776;SDS011;10047;42.490;26.012;2022-12-19T00:46:29;28.27;;;17.83;;
19776;SDS011;10047;42.490;26.012;2022-12-19T00:48:56;26.67;;;17.65;;
19776;SDS011;10047;42.490;26.012;2022-12-19T00:51:33;30.40;;;18.13;;
19776;SDS011;10047;42.490;26.012;2022-12-19T00:54:00;30.05;;;17.90;;
19776;SDS011;10047;42.490;26.012;2022-12-19T00:56:27;25.88;;;17.83;;
19776;SDS011;10047;42.490;26.012;2022-12-19T00:58:55;27.52;;;18.17;;
19776;SDS011;10047;42.490;26.012;2022-12-19T01:01:25;26.08;;;18.25;;
19776;SDS011;10047;42.490;26.012;2022-12-19T01:03:56;29.58;;;17.77;;
19776;SDS011;10047;42.490;26.012;2022-12-19T01:06:22;27.77;;;18.52;;
19776;SDS011;10047;42.490;26.012;2022-12-19T01:08:48;31.73;;;19.13;;
19776;SDS011;10047;42.490;26.012;2022-12-19T01:11:14;30.45;;;20.10;;
19776;SDS011;10047;42.490;26.012;2022-12-19T01:13:39;30.45;;;19.10;;
19776;SDS011;10047;42.490;26.012;2022-12-19T01:16:06;29.90;;;19.73;;
19776;SDS011;10047;42.490;26.012;2022-12-19T01:18:36;30.23;;;19.63;;
19776;SDS011;10047;42.490;26.012;2022-12-19T01:21:04;31.92;;;20.20;;
19776;SDS011;10047;42.490;26.012;2022-12-19T01:23:34;31.00;;;19.33;;
19776;SDS011;10047;42.490;26.012;2022-12-19T01:26:00;32.13;;;20.13;;
19776;SDS011;10047;42.490;26.012;2022-12-19T01:28:25;32.40;;;20.35;;
19776;SDS011;10047;42.490;26.012;2022-12-19T01:30:51;33.80;;;21.15;;
19776;SDS011;10047;42.490;26.012;2022-12-19T01:33:17;32.08;;;20.23;;
19776;SDS011;10047;42.490;26.012;2022-12-19T01:35:45;34.03;;;22.00;;
19776;SDS011;10047;42.490;26.012;2022-12-19T01:38:15;33.53;;;21.10;;
19776;SDS011;10047;42.490;26.012;2022-12-19T01:41:15;33.03;;;20.80;;
19776;SDS011;10047;42.490;26.012;2022-12-19T01:46:47;35.40;;;21.58;;
19776;SDS011;10047;42.490;26.012;2022-12-19T01:49:31;35.85;;;22.80;;
19776;SDS011;10047;42.490;26.012;2022-12-19T01:52:01;34.90;;;22.15;;
19776;SDS011;10047;42.490;26.012;2022-12-19T01:54:31;36.47;;;22.73;;
19776;SDS011;10047;42.490;26.012;2022-12-19T01:56:59;37.08;;;22.50;;
19776;SDS011;10047;42.490;26.012;2022-12-19T01:59:34;32.40;;;21.35;;
19776;SDS011;10047;42.490;26.012;2022-12-19T02:02:29;36.22;;;22.50;;
19776;SDS011;10047;42.490;26.012;2022-12-19T02:04:57;34.55;;;21.73;;
19776;SDS011;10047;42.490;26.012;2022-12-19T02:07:23;33.97;;;21.88;;
19776;SDS011;10047;42.490;26.012;2022-12-19T02:09:51;35.90;;;21.95;;
19776;SDS011;10047;42.490;26.012;2022-12-19T02:12:19;33.33;;;20.98;;
19776;SDS011;10047;42.490;26.012;2022-12-19T02:14:45;33.83;;;22.20;;
19776;SDS011;10047;42.490;26.012;2022-12-19T02:17:20;33.58;;;21.67;;
19776;SDS011;10047;42.490;26.012;2022-12-19T02:33:09;35.88;;;21.33;;
19776;SDS011;10047;42.490;26.012;2022-12-19T02:40:56;28.95;;;18.30;;
19776;SDS011;10047;42.490;26.012;2022-12-19T02:43:28;30.83;;;17.60;;
19776;SDS011;10047;42.490;26.012;2022-12-19T02:45:56;25.58;;;16.55;;
19776;SDS011;10047;42.490;26.012;2022-12-19T02:48:24;27.35;;;17.20;;
19776;SDS011;10047;42.490;26.012;2022-12-19T02:50:51;26.50;;;17.38;;
19776;SDS011;10047;42.490;26.012;2022-12-19T02:53:17;27.25;;;17.25;;
19776;SDS011;10047;42.490;26.012;2022-12-19T02:55:48;28.25;;;18.02;;
19776;SDS011;10047;42.490;26.012;2022-12-19T03:01:28;24.38;;;15.82;;
19776;SDS011;10047;42.490;26.012;2022-12-19T03:11:41;24.27;;;16.08;;
19776;SDS011;10047;42.490;26.012;2022-12-19T03:14:11;26.02;;;16.10;;
19776;SDS011;10047;42.490;26.012;2022-12-19T03:16:40;25.58;;;16.85;;
19776;SDS011;10047;42.490;26.012;2022-12-19T03:19:10;25.73;;;16.60;;
19776;SDS011;10047;42.490;26.012;2022-12-19T03:21:47;29.48;;;18.02;;
19776;SDS011;10047;42.490;26.012;2022-12-19T03:24:13;30.55;;;18.77;;
19776;SDS011;10047;42.490;26.012;2022-12-19T03:26:43;31.73;;;19.50;;
19776;SDS011;10047;42.490;26.012;2022-12-19T03:32:16;19.77;;;12.73;;
19776;SDS011;10047;42.490;26.012;2022-12-19T03:34:51;27.52;;;16.98;;
19776;SDS011;10047;42.490;26.012;2022-12-19T03:37:23;31.08;;;18.63;;
19776;SDS011;10047;42.490;26.012;2022-12-19T03:39:53;28.98;;;18.05;;
19776;SDS011;10047;42.490;26.012;2022-12-19T03:42:22;26.60;;;16.77;;
19776;SDS011;10047;42.490;26.012;2022-12-19T03:45:09;24.92;;;16.10;;
19776;SDS011;10047;42.490;26.012;2022-12-19T03:47:38;26.00;;;16.17;;
19776;SDS011;10047;42.490;26.012;2022-12-19T03:50:08;23.35;;;15.23;;
19776;SDS011;10047;42.490;26.012;2022-12-19T03:52:44;23.63;;;15.02;;
19776;SDS011;10047;42.490;26.012;2022-12-19T03:55:26;25.93;;;15.93;;
19776;SDS011;10047;42.490;26.012;2022-12-19T03:58:04;23.95;;;14.73;;
19776;SDS011;10047;42.490;26.012;2022-12-19T04:00:33;21.73;;;14.02;;
19776;SDS011;10047;42.490;26.012;2022-12-19T04:03:01;21.67;;;13.98;;
19776;SDS011;10047;42.490;26.012;2022-12-19T04:05:29;21.80;;;14.45;;
19776;SDS011;10047;42.490;26.012;2022-12-19T04:07:57;23.75;;;14.48;;
19776;SDS011;10047;42.490;26.012;2022-12-19T04:10:26;16.65;;;10.77;;
19776;SDS011;10047;42.490;26.012;2022-12-19T04:12:55;22.63;;;14.60;;
19776;SDS011;10047;42.490;26.012;2022-12-19T04:18:02;21.77;;;12.73;;
19776;SDS011;10047;42.490;26.012;2022-12-19T04:20:30;21.70;;;13.65;;
19776;SDS011;10047;42.490;26.012;2022-12-19T04:23:20;18.95;;;12.25;;
19776;SDS011;10047;42.490;26.012;2022-12-19T04:25:51;21.08;;;12.38;;
19776;SDS011;10047;42.490;26.012;2022-12-19T04:28:24;20.95;;;12.77;;
19776;SDS011;10047;42.490;26.012;2022-12-19T04:30:55;21.15;;;12.93;;
19776;SDS011;10047;42.490;26.012;2022-12-19T04:33:21;21.13;;;12.38;;
19776;SDS011;10047;42.490;26.012;2022-12-19T04:35:47;20.45;;;12.80;;
19776;SDS011;10047;42.490;26.012;2022-12-19T04:38:12;20.30;;;12.55;;
19776;SDS011;10047;42.490;26.012;2022-12-19T04:40:38;20.90;;;12.30;;
19776;SDS011;10047;42.490;26.012;2022-12-19T04:43:03;20.77;;;13.25;;
19776;SDS011;10047;42.490;26.012;2022-12-19T04:45:28;20.88;;;13.38;;
19776;SDS011;10047;42.490;26.012;2022-12-19T04:47:54;21.38;;;13.18;;
19776;SDS011;10047;42.490;26.012;2022-12-19T04:50:19;22.35;;;14.77;;
19776;SDS011;10047;42.490;26.012;2022-12-19T04:52:45;22.48;;;14.45;;
19776;SDS011;10047;42.490;26.012;2022-12-19T04:55:10;22.73;;;14.40;;
19776;SDS011;10047;42.490;26.012;2022-12-19T04:57:35;24.40;;;13.32;;
19776;SDS011;10047;42.490;26.012;2022-12-19T05:00:01;20.50;;;13.10;;
19776;SDS011;10047;42.490;26.012;2022-12-19T05:02:29;18.95;;;12.73;;
19776;SDS011;10047;42.490;26.012;2022-12-19T05:04:56;22.25;;;14.07;;
19776;SDS011;10047;42.490;26.012;2022-12-19T05:07:21;20.88;;;13.13;;
19776;SDS011;10047;42.490;26.012;2022-12-19T05:09:46;22.33;;;13.32;;
19776;SDS011;10047;42.490;26.012;2022-12-19T05:12:15;21.48;;;12.95;;
19776;SDS011;10047;42.490;26.012;2022-12-19T05:14:41;20.27;;;11.98;;
19776;SDS011;10047;42.490;26.012;2022-12-19T05:17:07;20.08;;;12.55;;
19776;SDS011;10047;42.490;26.012;2022-12-19T05:19:32;21.33;;;13.00;;
19776;SDS011;10047;42.490;26.012;2022-12-19T05:21:57;20.70;;;13.25;;
19776;SDS011;10047;42.490;26.012;2022-12-19T05:24:23;21.77;;;13.68;;
19776;SDS011;10047;42.490;26.012;2022-12-19T05:26:48;18.98;;;12.80;;
19776;SDS011;10047;42.490;26.012;2022-12-19T05:29:17;21.92;;;12.77;;
19776;SDS011;10047;42.490;26.012;2022-12-19T05:31:43;22.10;;;14.23;;
19776;SDS011;10047;42.490;26.012;2022-12-19T05:34:09;20.63;;;12.68;;
19776;SDS011;10047;42.490;26.012;2022-12-19T05:36:35;21.00;;;13.48;;
19776;SDS011;10047;42.490;26.012;2022-12-19T05:39:00;20.88;;;13.10;;
19776;SDS011;10047;42.490;26.012;2022-12-19T05:41:26;19.67;;;12.23;;
19776;SDS011;10047;42.490;26.012;2022-12-19T05:43:52;23.33;;;13.82;;
19776;SDS011;10047;42.490;26.012;2022-12-19T05:46:19;22.15;;;13.43;;
19776;SDS011;10047;42.490;26.012;2022-12-19T05:48:45;19.08;;;11.98;;
19776;SDS011;10047;42.490;26.012;2022-12-19T05:51:10;18.85;;;11.45;;
19776;SDS011;10047;42.490;26.012;2022-12-19T05:53:36;19.17;;;12.27;;
19776;SDS011;10047;42.490;26.012;2022-12-19T05:56:10;19.17;;;12.15;;
19776;SDS011;10047;42.490;26.012;2022-12-19T05:58:38;20.60;;;12.18;;
19776;SDS011;10047;42.490;26.012;2022-12-19T06:01:06;18.58;;;11.30;;
19776;SDS011;10047;42.490;26.012;2022-12-19T06:03:33;20.83;;;12.52;;
19776;SDS011;10047;42.490;26.012;2022-12-19T06:06:06;18.80;;;12.07;;
19776;SDS011;10047;42.490;26.012;2022-12-19T06:08:34;18.17;;;11.68;;
19776;SDS011;10047;42.490;26.012;2022-12-19T06:11:03;19.75;;;11.40;;
19776;SDS011;10047;42.490;26.012;2022-12-19T06:13:34;20.23;;;11.93;;
19776;SDS011;10047;42.490;26.012;2022-12-19T06:16:11;20.63;;;12.15;;
19776;SDS011;10047;42.490;26.012;2022-12-19T06:18:39;21.20;;;11.90;;
19776;SDS011;10047;42.490;26.012;2022-12-19T06:21:06;20.73;;;12.57;;
19776;SDS011;10047;42.490;26.012;2022-12-19T06:23:36;16.73;;;11.07;;
19776;SDS011;10047;42.490;26.012;2022-12-19T06:26:02;18.88;;;10.95;;
19776;SDS011;10047;42.490;26.012;2022-12-19T06:28:29;19.90;;;10.70;;
19776;SDS011;10047;42.490;26.012;2022-12-19T06:30:56;17.63;;;11.23;;
19776;SDS011;10047;42.490;26.012;2022-12-19T06:33:26;15.80;;;10.48;;
19776;SDS011;10047;42.490;26.012;2022-12-19T06:35:58;16.38;;;10.07;;
19776;SDS011;10047;42.490;26.012;2022-12-19T06:38:26;17.83;;;10.95;;
19776;SDS011;10047;42.490;26.012;2022-12-19T06:40:53;16.25;;;11.07;;
19776;SDS011;10047;42.490;26.012;2022-12-19T06:43:37;19.42;;;11.52;;
19776;SDS011;10047;42.490;26.012;2022-12-19T06:46:03;20.30;;;13.30;;
19776;SDS011;10047;42.490;26.012;2022-12-19T06:48:29;22.85;;;14.27;;
19776;SDS011;10047;42.490;26.012;2022-12-19T06:53:25;16.38;;;11.80;;
19776;SDS011;10047;42.490;26.012;2022-12-19T06:55:52;16.27;;;10.00;;
19776;SDS011;10047;42.490;26.012;2022-12-19T06:58:20;16.23;;;11.48;;
19776;SDS011;10047;42.490;26.012;2022-12-19T07:00:45;18.92;;;10.05;;
19776;SDS011;10047;42.490;26.012;2022-12-19T07:03:11;15.00;;;9.30;;
19776;SDS011;10047;42.490;26.012;2022-12-19T07:05:39;18.40;;;11.20;;
19776;SDS011;10047;42.490;26.012;2022-12-19T07:08:06;11.38;;;6.28;;
19776;SDS011;10047;42.490;26.012;2022-12-19T07:10:32;10.55;;;6.47;;
19776;SDS011;10047;42.490;26.012;2022-12-19T07:12:58;9.35;;;5.75;;
19776;SDS011;10047;42.490;26.012;2022-12-19T07:15:23;14.23;;;7.40;;
19776;SDS011;10047;42.490;26.012;2022-12-19T07:17:49;9.95;;;5.80;;
19776;SDS011;10047;42.490;26.012;2022-12-19T07:20:15;9.10;;;5.22;;
19776;SDS011;10047;42.490;26.012;2022-12-19T07:22:41;9.32;;;5.43;;
19776;SDS011;10047;42.490;26.012;2022-12-19T07:25:08;11.98;;;6.07;;
19776;SDS011;10047;42.490;26.012;2022-12-19T07:27:34;12.10;;;7.85;;
19776;SDS011;10047;42.490;26.012;2022-12-19T07:30:00;27.92;;;16.98;;
19776;SDS011;10047;42.490;26.012;2022-12-19T07:32:26;19.42;;;11.55;;
19776;SDS011;10047;42.490;26.012;2022-12-19T07:34:51;10.68;;;5.60;;
19776;SDS011;10047;42.490;26.012;2022-12-19T07:37:23;25.08;;;11.35;;
19776;SDS011;10047;42.490;26.012;2022-12-19T07:39:48;9.85;;;6.07;;
19776;SDS011;10047;42.490;26.012;2022-12-19T07:42:14;12.30;;;6.32;;
19776;SDS011;10047;42.490;26.012;2022-12-19T07:44:39;11.35;;;6.18;;
19776;SDS011;10047;42.490;26.012;2022-12-19T07:47:04;11.30;;;6.05;;
19776;SDS011;10047;42.490;26.012;2022-12-19T07:49:30;18.02;;;8.90;;
19776;SDS011;10047;42.490;26.012;2022-12-19T07:51:55;18.90;;;11.15;;
19776;SDS011;10047;42.490;26.012;2022-12-19T07:54:20;16.05;;;8.90;;
19776;SDS011;10047;42.490;26.012;2022-12-19T07:56:46;11.02;;;6.22;;
19776;SDS011;10047;42.490;26.012;2022-12-19T07:59:12;18.38;;;9.98;;
19776;SDS011;10047;42.490;26.012;2022-12-19T08:01:37;18.88;;;9.75;;
19776;SDS011;10047;42.490;26.012;2022-12-19T08:04:03;12.30;;;7.68;;
19776;SDS011;10047;42.490;26.012;2022-12-19T08:06:28;15.00;;;8.52;;
19776;SDS011;10047;42.490;26.012;2022-12-19T08:08:54;17.38;;;8.82;;
19776;SDS011;10047;42.490;26.012;2022-12-19T08:11:20;12.52;;;6.82;;
19776;SDS011;10047;42.490;26.012;2022-12-19T08:13:53;10.75;;;6.38;;
19776;SDS011;10047;42.490;26.012;2022-12-19T08:16:19;12.10;;;7.40;;
19776;SDS011;10047;42.490;26.012;2022-12-19T08:18:45;13.68;;;7.88;;
19776;SDS011;10047;42.490;26.012;2022-12-19T08:21:11;14.65;;;7.57;;
19776;SDS011;10047;42.490;26.012;2022-12-19T08:23:37;15.82;;;9.45;;
19776;SDS011;10047;42.490;26.012;2022-12-19T08:26:04;12.18;;;6.78;;
19776;SDS011;10047;42.490;26.012;2022-12-19T08:28:32;17.50;;;8.95;;
19776;SDS011;10047;42.490;26.012;2022-12-19T08:31:02;14.25;;;8.70;;
19776;SDS011;10047;42.490;26.012;2022-12-19T08:33:30;14.93;;;7.50;;
19776;SDS011;10047;42.490;26.012;2022-12-19T08:35:56;12.48;;;6.30;;
19776;SDS011;10047;42.490;26.012;2022-12-19T08:38:21;13.63;;;8.02;;
19776;SDS011;10047;42.490;26.012;2022-12-19T08:40:53;10.95;;;5.97;;
19776;SDS011;10047;42.490;26.012;2022-12-19T08:43:19;12.68;;;7.45;;
19776;SDS011;10047;42.490;26.012;2022-12-19T08:45:49;14.07;;;7.70;;
19776;SDS011;10047;42.490;26.012;2022-12-19T08:48:15;14.65;;;7.90;;
19776;SDS011;10047;42.490;26.012;2022-12-19T08:50:54;19.48;;;8.55;;
19776;SDS011;10047;42.490;26.012;2022-12-19T08:53:23;21.35;;;10.32;;
19776;SDS011;10047;42.490;26.012;2022-12-19T08:55:57;20.58;;;11.00;;
19776;SDS011;10047;42.490;26.012;2022-12-19T08:58:24;16.48;;;8.60;;
19776;SDS011;10047;42.490;26.012;2022-12-19T09:00:51;13.80;;;7.75;;
19776;SDS011;10047;42.490;26.012;2022-12-19T09:03:17;31.95;;;13.25;;
19776;SDS011;10047;42.490;26.012;2022-12-19T09:05:43;18.25;;;8.40;;
19776;SDS011;10047;42.490;26.012;2022-12-19T09:08:09;15.10;;;7.90;;
19776;SDS011;10047;42.490;26.012;2022-12-19T09:10:35;19.38;;;9.15;;
19776;SDS011;10047;42.490;26.012;2022-12-19T09:13:01;14.82;;;8.32;;
19776;SDS011;10047;42.490;26.012;2022-12-19T09:15:27;14.65;;;8.23;;
19776;SDS011;10047;42.490;26.012;2022-12-19T09:17:54;15.73;;;9.00;;
19776;SDS011;10047;42.490;26.012;2022-12-19T09:20:22;18.58;;;8.73;;
19776;SDS011;10047;42.490;26.012;2022-12-19T09:22:47;18.63;;;8.32;;
19776;SDS011;10047;42.490;26.012;2022-12-19T09:25:12;16.65;;;8.88;;
19776;SDS011;10047;42.490;26.012;2022-12-19T09:27:38;18.30;;;9.23;;
19776;SDS011;10047;42.490;26.012;2022-12-19T09:30:04;17.02;;;9.40;;
19776;SDS011;10047;42.490;26.012;2022-12-19T09:32:30;18.73;;;10.13;;
19776;SDS011;10047;42.490;26.012;2022-12-19T09:34:55;19.67;;;10.43;;
19776;SDS011;10047;42.490;26.012;2022-12-19T09:37:21;16.20;;;8.32;;
19776;SDS011;10047;42.490;26.012;2022-12-19T09:39:46;17.13;;;9.30;;
19776;SDS011;10047;42.490;26.012;2022-12-19T09:42:55;18.83;;;8.13;;
19776;SDS011;10047;42.490;26.012;2022-12-19T09:45:10;15.65;;;8.18;;
19776;SDS011;10047;42.490;26.012;2022-12-19T09:47:49;17.27;;;9.90;;
19776;SDS011;10047;42.490;26.012;2022-12-19T09:50:25;29.65;;;12.80;;
19776;SDS011;10047;42.490;26.012;2022-12-19T09:52:57;19.15;;;9.38;;
19776;SDS011;10047;42.490;26.012;2022-12-19T09:55:32;21.42;;;10.75;;
19776;SDS011;10047;42.490;26.012;2022-12-19T10:00:54;19.73;;;10.43;;
19776;SDS011;10047;42.490;26.012;2022-12-19T10:05:53;26.83;;;12.97;;
19776;SDS011;10047;42.490;26.012;2022-12-19T10:08:44;13.50;;;7.47;;
19776;SDS011;10047;42.490;26.012;2022-12-19T10:19:19;18.95;;;9.25;;
19776;SDS011;10047;42.490;26.012;2022-12-19T10:21:59;18.23;;;9.77;;
19776;SDS011;10047;42.490;26.012;2022-12-19T10:30:22;20.88;;;11.27;;
19776;SDS011;10047;42.490;26.012;2022-12-19T10:35:21;18.48;;;10.15;;
19776;SDS011;10047;42.490;26.012;2022-12-19T10:40:47;18.10;;;8.90;;
19776;SDS011;10047;42.490;26.012;2022-12-19T10:46:11;19.05;;;10.85;;
19776;SDS011;10047;42.490;26.012;2022-12-19T10:48:41;19.00;;;9.55;;
19776;SDS011;10047;42.490;26.012;2022-12-19T10:51:18;24.73;;;12.43;;
19776;SDS011;10047;42.490;26.012;2022-12-19T10:53:55;31.92;;;15.32;;
19776;SDS011;10047;42.490;26.012;2022-12-19T10:56:26;19.20;;;9.57;;
19776;SDS011;10047;42.490;26.012;2022-12-19T10:58:53;21.30;;;10.85;;
19776;SDS011;10047;42.490;26.012;2022-12-19T11:01:39;17.65;;;9.05;;
19776;SDS011;10047;42.490;26.012;2022-12-19T11:06:43;18.95;;;9.18;;
19776;SDS011;10047;42.490;26.012;2022-12-19T11:09:15;17.25;;;9.20;;
19776;SDS011;10047;42.490;26.012;2022-12-19T11:11:45;17.60;;;9.80;;
19776;SDS011;10047;42.490;26.012;2022-12-19T11:14:19;17.27;;;9.13;;
19776;SDS011;10047;42.490;26.012;2022-12-19T11:16:50;17.73;;;9.43;;
19776;SDS011;10047;42.490;26.012;2022-12-19T11:19:35;31.80;;;13.98;;
19776;SDS011;10047;42.490;26.012;2022-12-19T11:24:51;17.40;;;9.60;;
19776;SDS011;10047;42.490;26.012;2022-12-19T11:30:22;17.83;;;9.65;;
19776;SDS011;10047;42.490;26.012;2022-12-19T11:35:58;14.68;;;8.20;;
19776;SDS011;10047;42.490;26.012;2022-12-19T11:38:36;17.38;;;8.73;;
19776;SDS011;10047;42.490;26.012;2022-12-19T11:41:10;18.95;;;10.60;;
19776;SDS011;10047;42.490;26.012;2022-12-19T11:51:59;11.85;;;7.68;;
19776;SDS011;10047;42.490;26.012;2022-12-19T11:54:54;12.77;;;7.50;;
19776;SDS011;10047;42.490;26.012;2022-12-19T11:57:23;11.20;;;6.10;;
19776;SDS011;10047;42.490;26.012;2022-12-19T11:59:49;13.63;;;6.80;;
19776;SDS011;10047;42.490;26.012;2022-12-19T12:08:11;9.45;;;5.75;;
19776;SDS011;10047;42.490;26.012;2022-12-19T12:11:32;11.15;;;6.40;;
19776;SDS011;10047;42.490;26.012;2022-12-19T12:13:45;10.52;;;6.05;;
19776;SDS011;10047;42.490;26.012;2022-12-19T12:22:35;9.85;;;5.63;;
19776;SDS011;10047;42.490;26.012;2022-12-19T12:25:14;14.02;;;7.00;;
19776;SDS011;10047;42.490;26.012;2022-12-19T12:44:30;12.10;;;6.90;;
19776;SDS011;10047;42.490;26.012;2022-12-19T12:47:00;11.40;;;6.75;;
19776;SDS011;10047;42.490;26.012;2022-12-19T12:52:04;11.90;;;6.93;;
19776;SDS011;10047;42.490;26.012;2022-12-19T12:54:39;11.82;;;7.18;;
19776;SDS011;10047;42.490;26.012;2022-12-19T13:09:26;16.10;;;7.95;;
19776;SDS011;10047;42.490;26.012;2022-12-19T13:11:49;16.70;;;8.18;;
19776;SDS011;10047;42.490;26.012;2022-12-19T13:15:15;15.10;;;8.40;;
19776;SDS011;10047;42.490;26.012;2022-12-19T13:27:50;17.85;;;9.60;;
19776;SDS011;10047;42.490;26.012;2022-12-19T13:30:21;13.52;;;7.20;;
19776;SDS011;10047;42.490;26.012;2022-12-19T13:42:38;14.35;;;8.23;;
19776;SDS011;10047;42.490;26.012;2022-12-19T13:45:33;16.35;;;9.05;;
19776;SDS011;10047;42.490;26.012;2022-12-19T13:48:01;14.85;;;7.90;;
19776;SDS011;10047;42.490;26.012;2022-12-19T13:50:29;14.70;;;8.52;;
19776;SDS011;10047;42.490;26.012;2022-12-19T13:53:00;14.52;;;7.82;;
19776;SDS011;10047;42.490;26.012;2022-12-19T13:55:28;18.83;;;8.05;;
19776;SDS011;10047;42.490;26.012;2022-12-19T13:57:54;16.58;;;9.15;;
19776;SDS011;10047;42.490;26.012;2022-12-19T14:00:28;15.43;;;9.48;;
19776;SDS011;10047;42.490;26.012;2022-12-19T14:03:04;18.00;;;11.00;;
19776;SDS011;10047;42.490;26.012;2022-12-19T14:05:39;18.58;;;10.82;;
19776;SDS011;10047;42.490;26.012;2022-12-19T14:08:05;16.88;;;9.98;;
19776;SDS011;10047;42.490;26.012;2022-12-19T14:10:33;18.13;;;9.95;;
19776;SDS011;10047;42.490;26.012;2022-12-19T14:13:02;21.30;;;11.95;;
19776;SDS011;10047;42.490;26.012;2022-12-19T14:15:48;16.98;;;9.25;;
19776;SDS011;10047;42.490;26.012;2022-12-19T14:20:46;44.67;;;25.30;;
19776;SDS011;10047;42.490;26.012;2022-12-19T14:23:13;29.95;;;17.30;;
19776;SDS011;10047;42.490;26.012;2022-12-19T14:25:47;19.15;;;11.90;;
19776;SDS011;10047;42.490;26.012;2022-12-19T14:28:17;27.45;;;14.88;;
19776;SDS011;10047;42.490;26.012;2022-12-19T14:30:47;20.52;;;12.70;;
19776;SDS011;10047;42.490;26.012;2022-12-19T14:33:19;35.47;;;21.70;;
19776;SDS011;10047;42.490;26.012;2022-12-19T14:35:47;18.48;;;11.13;;
19776;SDS011;10047;42.490;26.012;2022-12-19T14:38:23;16.20;;;9.65;;
19776;SDS011;10047;42.490;26.012;2022-12-19T14:40:52;14.80;;;8.68;;
19776;SDS011;10047;42.490;26.012;2022-12-19T14:43:36;16.83;;;10.13;;
19776;SDS011;10047;42.490;26.012;2022-12-19T14:51:34;17.90;;;10.32;;
19776;SDS011;10047;42.490;26.012;2022-12-19T14:56:55;20.17;;;12.95;;
19776;SDS011;10047;42.490;26.012;2022-12-19T15:02:01;23.23;;;13.68;;
19776;SDS011;10047;42.490;26.012;2022-12-19T15:04:34;19.98;;;12.30;;
19776;SDS011;10047;42.490;26.012;2022-12-19T15:07:03;18.90;;;12.93;;
19776;SDS011;10047;42.490;26.012;2022-12-19T15:10:14;18.50;;;10.88;;
19776;SDS011;10047;42.490;26.012;2022-12-19T15:12:27;28.20;;;15.77;;
19776;SDS011;10047;42.490;26.012;2022-12-19T15:17:51;16.58;;;10.40;;
19776;SDS011;10047;42.490;26.012;2022-12-19T15:20:18;17.00;;;9.43;;
19776;SDS011;10047;42.490;26.012;2022-12-19T15:22:45;21.90;;;12.65;;
19776;SDS011;10047;42.490;26.012;2022-12-19T15:25:12;23.40;;;12.10;;
19776;SDS011;10047;42.490;26.012;2022-12-19T15:27:42;25.15;;;15.25;;
19776;SDS011;10047;42.490;26.012;2022-12-19T15:30:15;28.13;;;17.13;;
19776;SDS011;10047;42.490;26.012;2022-12-19T15:32:43;38.03;;;20.50;;
19776;SDS011;10047;42.490;26.012;2022-12-19T15:35:10;38.55;;;20.25;;
19776;SDS011;10047;42.490;26.012;2022-12-19T15:37:40;30.73;;;18.15;;
19776;SDS011;10047;42.490;26.012;2022-12-19T15:40:06;21.30;;;12.25;;
19776;SDS011;10047;42.490;26.012;2022-12-19T15:42:39;21.77;;;12.88;;
19776;SDS011;10047;42.490;26.012;2022-12-19T15:45:04;25.33;;;14.65;;
19776;SDS011;10047;42.490;26.012;2022-12-19T15:47:34;23.52;;;14.18;;
19776;SDS011;10047;42.490;26.012;2022-12-19T15:50:01;25.52;;;16.15;;
19776;SDS011;10047;42.490;26.012;2022-12-19T15:52:45;23.63;;;14.50;;
19776;SDS011;10047;42.490;26.012;2022-12-19T15:55:20;22.80;;;14.27;;
19776;SDS011;10047;42.490;26.012;2022-12-19T15:57:51;20.40;;;13.95;;
19776;SDS011;10047;42.490;26.012;2022-12-19T16:00:20;25.17;;;15.13;;
19776;SDS011;10047;42.490;26.012;2022-12-19T16:02:49;25.38;;;15.57;;
19776;SDS011;10047;42.490;26.012;2022-12-19T16:05:16;26.13;;;16.10;;
19776;SDS011;10047;42.490;26.012;2022-12-19T16:07:43;22.90;;;14.73;;
19776;SDS011;10047;42.490;26.012;2022-12-19T16:10:09;20.35;;;12.38;;
19776;SDS011;10047;42.490;26.012;2022-12-19T16:12:39;18.77;;;12.05;;
19776;SDS011;10047;42.490;26.012;2022-12-19T16:15:19;19.83;;;12.43;;
19776;SDS011;10047;42.490;26.012;2022-12-19T16:17:51;21.67;;;12.27;;
19776;SDS011;10047;42.490;26.012;2022-12-19T16:20:18;27.73;;;16.58;;
19776;SDS011;10047;42.490;26.012;2022-12-19T16:22:48;20.83;;;13.38;;
19776;SDS011;10047;42.490;26.012;2022-12-19T16:25:15;19.77;;;12.52;;
19776;SDS011;10047;42.490;26.012;2022-12-19T16:27:41;18.83;;;11.88;;
19776;SDS011;10047;42.490;26.012;2022-12-19T16:30:18;19.08;;;12.27;;
19776;SDS011;10047;42.490;26.012;2022-12-19T16:32:46;23.52;;;14.18;;
19776;SDS011;10047;42.490;26.012;2022-12-19T16:35:13;27.30;;;15.85;;
19776;SDS011;10047;42.490;26.012;2022-12-19T16:37:40;27.65;;;17.02;;
19776;SDS011;10047;42.490;26.012;2022-12-19T16:40:11;30.95;;;18.55;;
19776;SDS011;10047;42.490;26.012;2022-12-19T16:42:38;43.08;;;24.70;;
19776;SDS011;10047;42.490;26.012;2022-12-19T16:45:04;39.38;;;24.55;;
19776;SDS011;10047;42.490;26.012;2022-12-19T16:47:30;32.13;;;19.98;;
19776;SDS011;10047;42.490;26.012;2022-12-19T16:49:55;31.42;;;20.63;;
19776;SDS011;10047;42.490;26.012;2022-12-19T16:52:21;31.58;;;19.70;;
19776;SDS011;10047;42.490;26.012;2022-12-19T16:54:46;33.38;;;21.10;;
19776;SDS011;10047;42.490;26.012;2022-12-19T16:57:18;29.75;;;19.23;;
19776;SDS011;10047;42.490;26.012;2022-12-19T16:59:46;31.08;;;18.67;;
19776;SDS011;10047;42.490;26.012;2022-12-19T17:04:47;34.13;;;21.70;;
19776;SDS011;10047;42.490;26.012;2022-12-19T17:07:12;36.03;;;22.45;;
19776;SDS011;10047;42.490;26.012;2022-12-19T17:09:37;34.72;;;22.02;;
19776;SDS011;10047;42.490;26.012;2022-12-19T17:12:03;37.78;;;18.67;;
19776;SDS011;10047;42.490;26.012;2022-12-19T17:14:29;28.30;;;17.73;;
19776;SDS011;10047;42.490;26.012;2022-12-19T17:16:56;29.95;;;17.42;;